createdAt,value
2022-11-23T00:01:32.758Z,90.42
2022-11-23T00:04:06.387Z,90.46
2022-11-23T00:06:34.911Z,90.22
2022-11-23T00:09:03.001Z,89.82
2022-11-23T00:11:30.756Z,89.74
2022-11-23T00:13:58.282Z,89.64
2022-11-23T00:16:28.518Z,89.95
2022-11-23T00:18:58.347Z,90.01
2022-11-23T00:21:29.004Z,89.97
2022-11-23T00:23:56.779Z,90.25
2022-11-23T00:26:24.446Z,90.33
2022-11-23T00:28:52.086Z,90.38
2022-11-23T00:31:21.037Z,90.32
2022-11-23T00:33:50.612Z,90.44
2022-11-23T00:36:19.206Z,90.37
2022-11-23T00:38:48.605Z,90.57
2022-11-23T00:41:19.717Z,90.64
2022-11-23T00:43:47.597Z,90.74
2022-11-23T00:46:24.600Z,90.69
2022-11-23T00:48:54.548Z,90.68
2022-11-23T00:51:25.919Z,90.61
2022-11-23T00:53:54.030Z,90.64
2022-11-23T00:56:21.805Z,90.48
2022-11-23T00:58:51.067Z,90.54
2022-11-23T01:01:22.128Z,90.55
2022-11-23T01:03:55.225Z,90.48
2022-11-23T01:06:26.985Z,90.68
2022-11-23T01:08:57.349Z,90.73
2022-11-23T01:11:28.132Z,90.67
2022-11-23T01:13:55.755Z,90.69
2022-11-23T01:16:27.024Z,90.65
2022-11-23T01:18:56.166Z,90.64
2022-11-23T01:21:26.174Z,90.51
2022-11-23T01:23:54.034Z,90.63
2022-11-23T01:26:22.007Z,90.54
2022-11-23T01:28:50.385Z,90.80
2022-11-23T01:31:20.689Z,90.68
2022-11-23T01:33:52.892Z,90.62
2022-11-23T01:36:23.085Z,90.49
2022-11-23T01:38:52.389Z,91.01
2022-11-23T01:41:24.836Z,90.96
2022-11-23T01:43:53.650Z,91.02
2022-11-23T01:46:21.514Z,91.06
2022-11-23T01:48:59.768Z,91.06
2022-11-23T01:51:50.609Z,90.97
2022-11-23T01:54:25.012Z,90.91
2022-11-23T01:57:02.569Z,90.82
2022-11-23T01:59:31.806Z,91.10
2022-11-23T02:02:00.569Z,91.01
2022-11-23T02:04:33.568Z,91.05
2022-11-23T02:07:02.967Z,91.12
2022-11-23T02:09:33.082Z,90.66
2022-11-23T02:12:01.166Z,90.89
2022-11-23T02:14:29.245Z,91.03
2022-11-23T02:16:59.853Z,90.87
2022-11-23T02:19:50.672Z,90.95
2022-11-23T02:22:35.201Z,90.86
2022-11-23T02:25:09.552Z,90.78
2022-11-23T02:27:37.135Z,90.70
2022-11-23T02:30:05.391Z,90.79
2022-11-23T02:32:34.646Z,90.77
2022-11-23T02:35:02.170Z,90.95
2022-11-23T02:37:29.775Z,90.86
2022-11-23T02:40:01.647Z,90.97
2022-11-23T02:42:30.674Z,91.18
2022-11-23T02:45:24.915Z,91.29
2022-11-23T02:47:52.845Z,91.30
2022-11-23T02:50:20.952Z,91.31
2022-11-23T02:52:48.532Z,91.01
2022-11-23T02:55:16.574Z,90.81
2022-11-23T02:57:44.250Z,90.77
2022-11-23T03:00:13.073Z,90.67
2022-11-23T03:02:40.704Z,90.69
2022-11-23T03:05:08.910Z,90.74
2022-11-23T03:07:36.933Z,90.98
2022-11-23T03:10:05.388Z,90.80
2022-11-23T03:12:32.953Z,90.75
2022-11-23T03:15:00.966Z,90.82
2022-11-23T03:17:30.818Z,91.09
2022-11-23T03:19:58.560Z,91.21
2022-11-23T03:22:26.515Z,91.12
2022-11-23T03:24:54.195Z,91.13
2022-11-23T03:27:21.728Z,90.99
2022-11-23T03:29:49.435Z,91.36
2022-11-23T03:32:19.833Z,91.40
2022-11-23T03:34:50.423Z,91.33
2022-11-23T03:37:18.834Z,91.20
2022-11-23T03:39:47.636Z,91.14
2022-11-23T03:42:31.651Z,91.38
2022-11-23T03:44:59.566Z,91.66
2022-11-23T03:47:27.128Z,91.50
2022-11-23T03:49:54.659Z,91.39
2022-11-23T03:52:22.243Z,91.57
2022-11-23T03:54:49.766Z,91.58
2022-11-23T03:57:18.207Z,91.60
2022-11-23T03:59:46.068Z,91.61
2022-11-23T04:02:14.316Z,91.32
2022-11-23T04:04:48.123Z,91.42
2022-11-23T04:07:31.771Z,91.34
2022-11-23T04:09:59.724Z,91.34
2022-11-23T04:12:40.006Z,91.20
2022-11-23T04:15:09.189Z,91.19
2022-11-23T04:17:38.410Z,91.44
2022-11-23T04:20:07.849Z,91.80
2022-11-23T04:22:35.425Z,91.56
2022-11-23T04:25:03.835Z,91.10
2022-11-23T04:27:31.916Z,91.00
2022-11-23T04:29:59.494Z,91.32
2022-11-23T04:32:28.378Z,91.13
2022-11-23T04:34:56.108Z,91.07
2022-11-23T04:37:23.630Z,91.16
2022-11-23T04:39:51.147Z,91.11
2022-11-23T04:42:21.157Z,91.32
2022-11-23T04:44:52.852Z,91.35
2022-11-23T04:47:20.699Z,91.36
2022-11-23T04:49:48.560Z,91.38
2022-11-23T04:52:16.741Z,91.72
2022-11-23T04:54:48.226Z,91.81
2022-11-23T04:57:16.213Z,91.67
2022-11-23T04:59:44.492Z,91.09
2022-11-23T05:02:12.256Z,91.09
2022-11-23T05:04:47.935Z,90.99
2022-11-23T05:07:17.442Z,91.17
2022-11-23T05:09:49.793Z,91.29
2022-11-23T05:12:19.370Z,91.62
2022-11-23T05:14:46.953Z,91.54
2022-11-23T05:17:17.977Z,91.66
2022-11-23T05:19:46.558Z,91.59
2022-11-23T05:22:14.195Z,91.33
2022-11-23T05:24:42.731Z,91.44
2022-11-23T05:27:16.570Z,91.65
2022-11-23T05:29:44.134Z,91.71
2022-11-23T05:32:12.151Z,91.56
2022-11-23T05:34:40.036Z,91.71
2022-11-23T05:37:08.271Z,91.53
2022-11-23T05:39:36.905Z,91.49
2022-11-23T05:42:04.765Z,91.40
2022-11-23T05:44:37.348Z,91.39
2022-11-23T05:47:05.610Z,91.32
2022-11-23T05:49:34.824Z,91.47
2022-11-23T05:52:03.893Z,91.57
2022-11-23T05:54:31.928Z,91.74
2022-11-23T05:57:08.912Z,91.64
2022-11-23T05:59:46.243Z,91.58
2022-11-23T06:02:18.535Z,91.55
2022-11-23T06:04:48.206Z,91.57
2022-11-23T06:07:18.669Z,91.75
2022-11-23T06:10:03.480Z,91.81
2022-11-23T06:12:34.106Z,91.66
2022-11-23T06:15:02.023Z,91.63
2022-11-23T06:17:30.353Z,91.73
2022-11-23T06:20:07.044Z,91.39
2022-11-23T06:22:35.702Z,91.64
2022-11-23T06:25:06.984Z,91.62
2022-11-23T06:27:40.522Z,91.47
2022-11-23T06:30:25.411Z,91.54
2022-11-23T06:32:56.165Z,91.53
2022-11-23T06:35:26.763Z,91.50
2022-11-23T06:37:55.279Z,91.67
2022-11-23T06:40:23.949Z,91.43
2022-11-23T06:42:58.407Z,91.14
2022-11-23T06:46:27.896Z,91.51
2022-11-23T06:48:56.219Z,91.58
2022-11-23T06:51:24.079Z,91.37
2022-11-23T06:53:52.381Z,91.44
2022-11-23T06:56:19.940Z,91.43
2022-11-23T06:58:47.737Z,91.51
2022-11-23T07:01:18.850Z,91.41
2022-11-23T07:03:54.872Z,91.10
2022-11-23T07:06:27.335Z,91.18
2022-11-23T07:08:58.921Z,91.57
2022-11-23T07:11:38.769Z,91.53
2022-11-23T07:14:06.707Z,91.55
2022-11-23T07:16:36.133Z,91.21
2022-11-23T07:19:09.136Z,91.21
2022-11-23T07:21:36.863Z,91.13
2022-11-23T07:24:05.051Z,91.39
2022-11-23T07:26:32.607Z,91.29
2022-11-23T07:29:01.036Z,91.26
2022-11-23T07:31:28.836Z,91.29
2022-11-23T07:33:56.504Z,91.50
2022-11-23T07:36:24.326Z,91.31
2022-11-23T07:38:51.880Z,91.38
2022-11-23T07:41:20.434Z,90.85
2022-11-23T07:44:03.965Z,91.12
2022-11-23T07:46:31.525Z,91.24
2022-11-23T07:49:02.204Z,91.07
2022-11-23T07:51:30.465Z,91.35
2022-11-23T07:53:58.185Z,91.58
2022-11-23T07:56:25.757Z,91.57
2022-11-23T07:58:53.284Z,91.48
2022-11-23T08:01:20.815Z,91.30
2022-11-23T08:03:48.736Z,91.20
2022-11-23T08:06:17.077Z,91.55
2022-11-23T08:08:44.736Z,91.45
2022-11-23T08:11:14.811Z,91.62
2022-11-23T08:13:43.080Z,91.03
2022-11-23T08:16:10.739Z,91.03
2022-11-23T08:18:38.457Z,91.22
2022-11-23T08:21:06.191Z,91.29
2022-11-23T08:23:34.311Z,91.42
2022-11-23T08:26:09.076Z,91.24
2022-11-23T08:28:41.307Z,91.30
2022-11-23T08:31:11.418Z,91.00
2022-11-23T08:33:39.528Z,90.88
2022-11-23T08:36:08.199Z,90.88
2022-11-23T08:38:35.900Z,90.83
2022-11-23T08:41:05.440Z,90.83
2022-11-23T08:43:35.450Z,91.09
2022-11-23T08:46:09.280Z,91.05
2022-11-23T08:48:38.822Z,91.04
2022-11-23T08:51:06.889Z,91.12
2022-11-23T08:53:35.290Z,91.01
2022-11-23T08:56:07.647Z,90.84
2022-11-23T08:58:36.694Z,90.64
2022-11-23T09:01:12.340Z,91.01
2022-11-23T09:03:40.601Z,91.25
2022-11-23T09:06:09.178Z,90.96
2022-11-23T09:08:37.723Z,91.16
2022-11-23T09:11:12.303Z,91.17
2022-11-23T09:13:40.374Z,90.71
2022-11-23T09:16:08.785Z,90.93
2022-11-23T09:18:36.651Z,90.96
2022-11-23T09:21:05.767Z,91.09
2022-11-23T09:23:33.433Z,91.03
2022-11-23T09:26:03.414Z,90.73
2022-11-23T09:28:32.071Z,90.68
2022-11-23T09:31:02.803Z,90.69
2022-11-23T09:33:30.642Z,90.70
2022-11-23T09:36:03.629Z,90.12
2022-11-23T09:38:55.755Z,89.97
2022-11-23T09:41:38.040Z,90.40
2022-11-23T09:44:20.965Z,89.88
2022-11-23T09:46:58.620Z,90.16
2022-11-23T09:49:47.695Z,90.32
2022-11-23T09:52:19.533Z,90.67
2022-11-23T09:54:49.798Z,90.44
2022-11-23T09:57:21.742Z,90.63
2022-11-23T09:59:57.291Z,90.61
2022-11-23T10:02:28.874Z,90.54
2022-11-23T10:04:59.796Z,90.14
2022-11-23T10:07:33.261Z,90.29
2022-11-23T10:10:19.675Z,90.73
2022-11-23T10:13:03.985Z,90.73
2022-11-23T10:15:38.008Z,90.77
2022-11-23T10:18:19.164Z,91.14
2022-11-23T10:21:19.352Z,91.31
2022-11-23T10:23:53.797Z,91.41
2022-11-23T10:26:30.441Z,91.31
2022-11-23T10:29:09.564Z,91.15
2022-11-23T10:31:37.647Z,91.17
2022-11-23T10:34:18.294Z,91.08
2022-11-23T10:36:57.079Z,90.99
2022-11-23T10:39:27.403Z,90.93
2022-11-23T10:42:03.904Z,90.77
2022-11-23T10:44:39.408Z,91.10
2022-11-23T10:47:10.293Z,90.83
2022-11-23T10:49:56.210Z,90.94
2022-11-23T10:52:33.434Z,90.80
2022-11-23T10:55:06.375Z,90.68
2022-11-23T10:57:42.256Z,90.87
2022-11-23T11:00:16.222Z,90.97
2022-11-23T11:02:50.225Z,90.60
2022-11-23T11:08:27.929Z,90.68
2022-11-23T11:11:01.658Z,90.19
2022-11-23T11:13:33.428Z,90.00
2022-11-23T11:16:04.416Z,90.13
2022-11-23T11:18:34.728Z,90.08
2022-11-23T11:21:23.933Z,90.11
2022-11-23T11:24:00.987Z,90.35
2022-11-23T11:26:31.399Z,90.23
2022-11-23T11:29:05.064Z,89.98
2022-11-23T11:31:53.518Z,89.96
2022-11-23T11:34:37.138Z,89.84
2022-11-23T11:37:21.380Z,90.04
2022-11-23T11:40:21.108Z,90.05
2022-11-23T11:43:03.614Z,90.02
2022-11-23T11:45:54.447Z,89.87
2022-11-23T11:48:37.525Z,89.88
2022-11-23T11:51:19.007Z,90.10
2022-11-23T11:54:22.004Z,90.12
2022-11-23T11:56:58.886Z,90.02
2022-11-23T11:59:32.727Z,90.14
2022-11-23T12:02:20.259Z,90.04
2022-11-23T12:05:03.830Z,90.10
2022-11-23T12:07:58.410Z,89.96
2022-11-23T12:10:28.370Z,89.77
2022-11-23T12:12:58.949Z,89.90
2022-11-23T12:15:55.667Z,90.01
2022-11-23T12:18:39.155Z,89.75
2022-11-23T12:21:28.841Z,89.62
2022-11-23T12:24:29.410Z,89.53
2022-11-23T12:27:07.533Z,89.84
2022-11-23T12:29:54.004Z,89.61
2022-11-23T12:32:27.685Z,89.59
2022-11-23T12:35:20.639Z,89.70
2022-11-23T12:37:57.150Z,89.66
2022-11-23T12:40:46.864Z,89.36
2022-11-23T12:43:50.696Z,89.27
2022-11-23T12:46:26.163Z,89.05
2022-11-23T12:49:20.573Z,89.11
2022-11-23T12:52:04.086Z,89.28
2022-11-23T12:54:54.262Z,89.47
2022-11-23T12:57:29.946Z,89.34
2022-11-23T13:00:07.171Z,89.85
2022-11-23T13:02:54.256Z,89.50
2022-11-23T13:05:32.787Z,89.46
2022-11-23T13:08:10.381Z,89.11
2022-11-23T13:11:15.744Z,89.18
2022-11-23T13:14:06.603Z,89.31
2022-11-23T13:16:40.595Z,89.42
2022-11-23T13:19:08.626Z,89.71
2022-11-23T13:21:45.207Z,89.90
2022-11-23T13:24:31.744Z,90.04
2022-11-23T13:27:19.058Z,89.77
2022-11-23T13:29:50.082Z,89.66
2022-11-23T13:32:38.279Z,89.69
2022-11-23T13:35:22.029Z,89.51
2022-11-23T13:38:21.621Z,89.64
2022-11-23T13:40:49.199Z,89.24
2022-11-23T13:43:36.290Z,89.55
2022-11-23T13:46:28.980Z,89.80
2022-11-23T13:48:59.961Z,89.56
2022-11-23T13:51:33.546Z,89.65
2022-11-23T13:54:04.056Z,89.55
2022-11-23T13:56:47.768Z,89.43
2022-11-23T13:59:33.359Z,89.54
2022-11-23T14:02:07.373Z,89.66
2022-11-23T14:04:43.242Z,89.59
2022-11-23T14:07:37.832Z,89.57
2022-11-23T14:10:19.064Z,89.68
2022-11-23T14:12:57.643Z,89.74
2022-11-23T14:15:33.035Z,89.61
2022-11-23T14:18:32.723Z,89.45
2022-11-23T14:21:34.313Z,89.47
2022-11-23T14:24:20.758Z,89.43
2022-11-23T14:26:56.002Z,89.75
2022-11-23T14:29:32.953Z,89.90
2022-11-23T14:32:19.269Z,89.86
2022-11-23T14:35:02.868Z,89.80
2022-11-23T14:37:46.339Z,89.83
2022-11-23T14:40:37.740Z,90.07
2022-11-23T14:43:13.318Z,90.07
2022-11-23T14:45:41.375Z,89.88
2022-11-23T14:48:29.491Z,89.69
2022-11-23T14:51:01.407Z,89.88
2022-11-23T14:53:34.540Z,89.48
2022-11-23T14:56:02.645Z,89.56
2022-11-23T14:58:32.346Z,89.75
2022-11-23T15:01:01.458Z,89.42
2022-11-23T15:06:25.130Z,89.45
2022-11-23T15:09:09.198Z,89.65
2022-11-23T15:11:38.210Z,89.37
2022-11-23T15:14:26.600Z,89.39
2022-11-23T15:16:54.212Z,89.24
2022-11-23T15:19:28.729Z,89.10
2022-11-23T15:21:57.387Z,89.38
2022-11-23T15:24:27.031Z,89.10
2022-11-23T15:27:10.878Z,89.09
2022-11-23T15:29:40.385Z,89.07
2022-11-23T15:32:32.143Z,88.89
2022-11-23T15:35:07.805Z,89.19
2022-11-23T15:37:54.360Z,89.74
2022-11-23T15:40:23.620Z,89.73
2022-11-23T15:42:51.524Z,89.77
2022-11-23T15:45:41.369Z,89.81
2022-11-23T15:48:29.684Z,89.64
2022-11-23T15:50:58.262Z,90.03
2022-11-23T15:53:29.751Z,90.15
2022-11-23T15:56:05.791Z,89.82
2022-11-23T15:58:35.152Z,90.01
2022-11-23T16:01:07.888Z,89.96
2022-11-23T16:03:47.405Z,89.80
2022-11-23T16:06:24.550Z,89.77
2022-11-23T16:08:52.238Z,89.88
2022-11-23T16:11:28.811Z,89.88
2022-11-23T16:14:18.944Z,90.15
2022-11-23T16:16:58.335Z,89.82
2022-11-23T16:19:31.326Z,89.95
2022-11-23T16:22:07.541Z,89.88
2022-11-23T16:24:36.413Z,90.05
2022-11-23T16:27:13.550Z,89.87
2022-11-23T16:29:41.987Z,90.14
2022-11-23T16:32:27.240Z,89.99
2022-11-23T16:34:58.790Z,89.93
2022-11-23T16:37:28.783Z,90.04
2022-11-23T16:39:56.578Z,89.87
2022-11-23T16:42:25.335Z,89.76
2022-11-23T16:44:52.858Z,89.98
2022-11-23T16:47:25.716Z,90.19
2022-11-23T16:49:54.414Z,90.11
2022-11-23T16:52:22.849Z,89.88
2022-11-23T16:54:52.452Z,89.86
2022-11-23T16:57:36.728Z,89.94
2022-11-23T17:00:08.406Z,89.96
2022-11-23T17:02:35.997Z,90.07
2022-11-23T17:05:13.409Z,89.93
2022-11-23T17:07:41.053Z,90.10
2022-11-23T17:10:09.695Z,90.01
2022-11-23T17:12:38.341Z,90.02
2022-11-23T17:15:07.764Z,89.63
2022-11-23T17:17:35.325Z,89.70
2022-11-23T17:20:04.669Z,89.74
2022-11-23T17:22:32.531Z,89.60
2022-11-23T17:25:00.034Z,89.47
2022-11-23T17:27:31.676Z,89.80
2022-11-23T17:30:01.695Z,89.70
2022-11-23T17:32:29.367Z,89.69
2022-11-23T17:34:57.264Z,89.90
2022-11-23T17:37:25.931Z,89.85
2022-11-23T17:39:53.719Z,89.96
2022-11-23T17:42:21.415Z,90.11
2022-11-23T17:44:48.980Z,89.68
2022-11-23T17:47:32.511Z,89.76
2022-11-23T17:50:00.081Z,89.94
2022-11-23T17:52:27.667Z,89.86
2022-11-23T17:54:55.715Z,90.00
2022-11-23T17:57:25.444Z,90.05
2022-11-23T17:59:54.362Z,89.57
2022-11-23T18:02:21.978Z,89.57
2022-11-23T18:04:49.685Z,89.65
2022-11-23T18:07:18.591Z,89.68
2022-11-23T18:09:46.436Z,89.71
2022-11-23T18:12:13.960Z,89.86
2022-11-23T18:14:41.869Z,89.84
2022-11-23T18:17:09.395Z,89.74
2022-11-23T18:19:36.936Z,89.74
2022-11-23T18:22:04.532Z,89.91
2022-11-23T18:24:32.237Z,90.13
2022-11-23T18:26:59.832Z,90.40
2022-11-23T18:29:27.763Z,90.12
2022-11-23T18:31:55.591Z,89.78
2022-11-23T18:34:23.357Z,89.82
2022-11-23T18:36:50.992Z,89.99
2022-11-23T18:39:18.581Z,89.99
2022-11-23T18:41:46.795Z,89.81
2022-11-23T18:44:14.340Z,89.94
2022-11-23T18:46:42.130Z,89.88
2022-11-23T18:49:09.794Z,89.96
2022-11-23T18:51:37.985Z,89.89
2022-11-23T18:54:05.672Z,89.89
2022-11-23T18:56:33.347Z,89.83
2022-11-23T18:59:01.090Z,89.70
2022-11-23T19:01:28.765Z,89.55
2022-11-23T19:03:56.516Z,89.63
2022-11-23T19:06:24.238Z,89.58
2022-11-23T19:08:54.058Z,89.59
2022-11-23T19:11:25.682Z,89.81
2022-11-23T19:13:55.889Z,90.13
2022-11-23T19:16:32.626Z,90.15
2022-11-23T19:19:02.894Z,90.36
2022-11-23T19:21:34.807Z,90.28
2022-11-23T19:24:03.036Z,90.24
2022-11-23T19:26:31.267Z,90.07
2022-11-23T19:28:59.439Z,90.25
2022-11-23T19:31:29.811Z,90.10
2022-11-23T19:34:01.145Z,89.93
2022-11-23T19:36:30.909Z,89.94
2022-11-23T19:39:02.797Z,89.92
2022-11-23T19:41:31.074Z,90.20
2022-11-23T19:44:00.142Z,90.33
2022-11-23T19:46:30.340Z,90.43
2022-11-23T19:48:58.533Z,90.35
2022-11-23T19:51:27.531Z,90.62
2022-11-23T19:53:59.958Z,90.51
2022-11-23T19:56:29.323Z,90.28
2022-11-23T19:59:00.348Z,90.08
2022-11-23T20:01:33.769Z,90.24
2022-11-23T20:04:09.209Z,90.16
2022-11-23T20:06:41.985Z,90.14
2022-11-23T20:09:23.310Z,90.37
2022-11-23T20:11:51.773Z,90.59
2022-11-23T20:14:19.931Z,90.65
2022-11-23T20:16:47.796Z,90.07
2022-11-23T20:19:15.403Z,90.37
2022-11-23T20:21:42.987Z,90.38
2022-11-23T20:24:14.098Z,90.61
2022-11-23T20:26:42.358Z,90.45
2022-11-23T20:29:10.879Z,90.45
2022-11-23T20:31:39.061Z,90.38
2022-11-23T20:34:08.305Z,90.05
2022-11-23T20:36:38.658Z,90.19
2022-11-23T20:39:09.842Z,90.10
2022-11-23T20:41:38.381Z,89.93
2022-11-23T20:44:11.230Z,90.06
2022-11-23T20:49:27.440Z,90.30
2022-11-23T20:51:55.186Z,90.46
2022-11-23T20:54:22.986Z,90.31
2022-11-23T20:56:50.545Z,90.35
2022-11-23T20:59:19.677Z,90.08
2022-11-23T21:01:47.259Z,90.12
2022-11-23T21:04:14.921Z,90.14
2022-11-23T21:06:42.840Z,90.02
2022-11-23T21:09:11.040Z,90.14
2022-11-23T21:11:54.808Z,90.08
2022-11-23T21:14:26.989Z,90.05
2022-11-23T21:16:56.902Z,90.11
2022-11-23T21:19:31.620Z,90.20
2022-11-23T21:22:03.560Z,90.03
2022-11-23T21:24:31.782Z,89.88
2022-11-23T21:27:00.382Z,89.87
2022-11-23T21:29:30.161Z,89.81
2022-11-23T21:31:58.011Z,89.79
2022-11-23T21:34:28.039Z,89.57
2022-11-23T21:36:57.081Z,89.50
2022-11-23T21:39:25.544Z,89.44
2022-11-23T21:41:54.053Z,89.58
2022-11-23T21:44:22.638Z,89.94
2022-11-23T21:46:50.566Z,89.67
2022-11-23T21:49:18.301Z,89.51
2022-11-23T21:51:46.575Z,89.57
2022-11-23T21:54:15.486Z,89.83
2022-11-23T21:56:45.143Z,89.66
2022-11-23T21:59:13.832Z,89.69
2022-11-23T22:01:42.454Z,89.84
2022-11-23T22:04:12.394Z,90.37
2022-11-23T22:06:42.009Z,90.45
2022-11-23T22:09:11.618Z,90.31
2022-11-23T22:11:41.731Z,90.20
2022-11-23T22:14:12.179Z,89.78
2022-11-23T22:16:44.192Z,89.77
2022-11-23T22:19:14.557Z,89.91
2022-11-23T22:21:44.410Z,89.70
2022-11-23T22:24:14.762Z,89.42
2022-11-23T22:26:42.954Z,89.86
2022-11-23T22:29:11.735Z,90.13
2022-11-23T22:31:39.982Z,89.99
2022-11-23T22:34:10.709Z,89.89
2022-11-23T22:36:38.481Z,89.80
2022-11-23T22:39:07.129Z,89.82
2022-11-23T22:41:38.317Z,89.69
2022-11-23T22:44:08.496Z,89.90
2022-11-23T22:46:37.258Z,90.11
2022-11-23T22:49:05.796Z,90.19
2022-11-23T22:51:34.013Z,90.17
2022-11-23T22:54:02.515Z,90.46
2022-11-23T22:56:31.246Z,90.27
2022-11-23T22:58:59.149Z,90.18
2022-11-23T23:01:29.787Z,89.99
2022-11-23T23:04:01.061Z,89.89
2022-11-23T23:06:34.515Z,89.94
2022-11-23T23:09:04.991Z,90.09
2022-11-23T23:11:34.192Z,90.10
2022-11-23T23:14:02.561Z,90.06
2022-11-23T23:16:31.056Z,89.95
2022-11-23T23:18:59.520Z,90.13
2022-11-23T23:21:28.557Z,90.06
2022-11-23T23:23:59.543Z,89.98
2022-11-23T23:26:28.456Z,90.01
2022-11-23T23:28:58.877Z,89.96
2022-11-23T23:31:27.924Z,90.30
2022-11-23T23:33:55.721Z,89.86
2022-11-23T23:36:24.541Z,90.14
2022-11-23T23:38:52.590Z,89.86
2022-11-23T23:41:21.063Z,90.17
2022-11-23T23:43:48.897Z,90.29
2022-11-23T23:46:16.825Z,90.25
2022-11-23T23:48:44.773Z,90.20
2022-11-23T23:51:19.386Z,90.19
2022-11-23T23:53:48.078Z,90.25
2022-11-23T23:56:19.396Z,89.96
2022-11-23T23:58:47.268Z,90.13
